Latest Weather Observations for Scottsdale

IDT60801

Issued at 11:31 am EST Friday 29 April 2016 (issued every 30 minutes, with the page automatically refreshed every 10 minutes)

About weather observations | Map of weather stations | Latest weather observations for TAS | Other Formats
Station Details ID: 091219 Name: SCOTTSDALE (WEST MINSTONE ROAD) Lat: -41.17 Lon: 147.49 Height: 197.5 m
Data from the previous 72 hours. | See also: Recent months at Scottsdale
Date/Time
EST
Temp
°C
App
Temp
°C
Dew
Point
Rel
Hum
%
Delta-T
°C
Wind Press
QNH
hPa
Press
MSL
hPa
Rain
since 9 am
mm
Dir
 
Spd
km/h
Gust
km/h
Spd
kts
Gust
kts
29/11:30am 18.8 18.2 14.7 77 2.4 NNW 11 15 6 8 1014.4 - 0.0
29/11:00am 19.1 18.9 14.7 75 2.6 NNW 9 15 5 8 1014.5 - 0.0
29/10:30am 19.4 19.0 14.1 71 3.1 N 9 17 5 9 1014.8 - 0.0
29/10:00am 18.5 18.7 14.7 78 2.2 SE 7 11 4 6 1015.0 - 0.0
29/09:30am 17.9 18.0 14.5 80 2.0 ESE 7 15 4 8 1015.7 - 0.0
29/09:00am 15.9 15.7 13.6 86 1.3 S 7 9 4 5 1015.9 1015.8 3.4
29/08:30am 15.3 14.6 13.2 87 1.2 SSW 9 13 5 7 1016.3 - 3.4
29/08:00am 15.3 14.8 12.8 85 1.4 S 7 13 4 7 1016.3 - 3.4
29/07:30am 15.2 13.5 12.5 84 1.5 SE 13 17 7 9 1015.7 - 3.4
29/07:00am 14.7 13.8 12.5 87 1.2 SSE 9 11 5 6 1015.9 - 3.4
29/06:30am 14.3 13.8 12.7 90 0.9 S 7 11 4 6 1015.9 - 3.4
29/06:00am 14.3 12.6 12.5 89 1.0 SSE 13 15 7 8 1015.9 1015.9 3.4
29/05:30am 14.1 12.1 12.8 92 0.7 S 15 17 8 9 1015.9 - 3.4
29/05:00am 13.9 12.3 12.8 93 0.6 SSE 13 15 7 8 1016.1 - 3.4
29/04:30am 13.7 11.3 12.6 93 0.6 SE 17 17 9 9 1016.2 - 3.4
29/04:00am 14.0 12.0 12.7 92 0.7 ESE 15 17 8 9 1016.4 - 3.4
29/03:30am 14.3 12.1 13.4 94 0.5 SE 17 19 9 10 1016.8 - 3.2
29/03:00am 14.1 11.9 13.4 96 0.4 SE 17 19 9 10 1017.3 1017.4 3.2
29/02:30am 14.1 12.7 13.4 96 0.4 SE 13 17 7 9 1018.1 - 2.8
29/02:00am 14.2 12.8 13.3 94 0.5 SSE 13 17 7 9 1018.2 - 2.8
29/01:30am 14.1 13.2 13.6 97 0.3 SE 11 13 6 7 1018.5 - 2.8
29/01:00am 14.0 13.4 13.5 97 0.3 SSE 9 11 5 6 1018.6 - 2.8
29/12:30am 14.1 13.1 13.4 96 0.4 ESE 11 13 6 7 1018.4 - 2.8
29/12:00am 13.8 13.5 13.3 97 0.3 ENE 7 7 4 4 1018.6 1018.6 2.8
 
Date/Time
EST
Temp
°C
App
Temp
°C
Dew
Point
Rel
Hum
%
Delta-T
°C
Wind Press
QNH
hPa
Press
MSL
hPa
Rain
since 9 am
mm
Dir
 
Spd
km/h
Gust
km/h
Spd
kts
Gust
kts
28/11:30pm 13.8 14.9 13.4 97 0.2 CALM 0 0 0 0 1018.4 - 2.8
28/11:00pm 14.0 13.4 13.5 97 0.3 ESE 9 11 5 6 1018.3 - 2.8
28/10:30pm 14.2 13.2 13.5 96 0.4 SSE 11 13 6 7 1018.4 - 2.8
28/10:00pm 13.4 14.3 13.0 97 0.2 CALM 0 0 0 0 1018.8 - 2.8
28/09:30pm 13.9 13.8 13.2 96 0.4 WSW 6 7 3 4 1018.7 - 2.8
28/09:00pm 14.0 13.0 13.3 96 0.4 SSE 11 13 6 7 1018.2 1018.3 2.8
28/08:30pm 14.7 13.9 14.0 96 0.4 ESE 11 13 6 7 1018.4 - 2.8
28/08:00pm 14.9 14.1 14.0 94 0.5 ESE 11 13 6 7 1018.6 - 2.8
28/07:30pm 15.1 15.2 14.0 93 0.6 NNE 6 9 3 5 1018.9 - 2.2
28/07:00pm 15.4 15.2 13.1 86 1.3 ENE 6 7 3 4 1018.4 - 0.0
28/06:30pm 15.5 15.2 13.4 87 1.2 N 7 9 4 5 1018.2 - 0.0
28/06:00pm 15.6 14.7 12.7 83 1.6 NNW 9 13 5 7 1017.8 1017.8 0.0
28/05:30pm 16.2 15.5 13.2 82 1.7 NNW 9 11 5 6 1017.3 - 0.0
28/05:00pm 17.0 15.9 13.1 78 2.2 N 11 15 6 8 1016.8 - 0.0
28/04:30pm 17.6 17.3 13.2 75 2.5 NW 7 11 4 6 1016.7 - 0.0
28/04:00pm 18.2 17.7 12.5 69 3.2 WNW 7 11 4 6 1016.4 - 0.0
28/03:30pm 18.9 17.9 12.3 65 3.7 W 9 13 5 7 1016.3 - 0.0
28/03:00pm 19.7 18.7 12.4 62 4.1 WNW 9 15 5 8 1016.2 1016.2 0.0
28/02:30pm 19.1 18.8 14.3 73 2.8 WNW 9 15 5 8 1016.0 - 0.0
28/02:00pm 18.7 18.3 14.0 74 2.7 NNW 9 13 5 7 1016.0 - 0.0
28/01:30pm 18.4 17.7 14.4 77 2.3 NNW 11 15 6 8 1016.3 - 0.0
28/01:00pm 18.7 17.7 14.6 77 2.4 N 13 15 7 8 1016.4 - 0.0
28/12:30pm 19.3 19.0 14.3 73 2.9 NNW 9 13 5 7 1016.2 - 0.0
28/12:00pm 18.6 18.7 13.9 74 2.7 NW 6 9 3 5 1016.2 1016.2 0.0
28/11:30am 18.8 19.7 14.0 73 2.8 WNW 2 7 1 4 1016.3 - 0.0
28/11:00am 17.5 18.6 13.6 78 2.2 CALM 0 0 0 0 1016.4 - 0.0
28/10:30am 17.1 17.6 15.0 87 1.2 SW 6 7 3 4 1016.4 - 0.0
28/10:00am 16.9 17.1 14.8 87 1.2 SE 7 7 4 4 1016.1 - 0.0
28/09:30am 15.6 15.6 14.2 91 0.8 S 7 11 4 6 1016.6 - 0.0
28/09:00am 15.6 15.8 14.2 91 0.8 E 6 7 3 4 1016.2 1016.3 0.6
28/08:30am 15.2 15.3 13.8 91 0.8 ESE 6 7 3 4 1016.2 - 0.4
28/08:00am 15.8 16.1 13.5 86 1.3 N 4 7 2 4 1016.3 - 0.2
28/07:30am 14.7 13.5 12.9 89 1.0 ENE 11 13 6 7 1015.9 - 0.2
28/07:00am 15.1 14.8 12.8 86 1.3 NE 6 7 3 4 1015.5 - 0.2
28/06:30am 15.1 14.6 12.6 85 1.4 NE 7 9 4 5 1015.4 - 0.2
28/06:00am 15.5 14.5 12.4 82 1.7 NE 9 9 5 5 1015.2 1015.2 0.2
28/05:30am 15.4 14.9 12.5 83 1.6 ENE 7 9 4 5 1015.3 - 0.2
28/05:00am 14.9 13.9 12.4 85 1.4 E 9 11 5 6 1015.1 - 0.2
28/04:30am 14.4 13.3 11.8 84 1.4 E 9 11 5 6 1015.0 - 0.2
28/04:00am 15.0 14.0 12.3 84 1.5 E 9 11 5 6 1015.0 - 0.2
28/03:30am 15.4 15.0 12.3 82 1.7 E 6 7 3 4 1015.0 - 0.2
28/03:00am 15.4 14.4 12.3 82 1.7 ENE 9 11 5 6 1015.1 1015.1 0.2
28/02:30am 15.7 15.0 12.1 79 2.0 SSE 7 13 4 7 1015.4 - 0.2
28/02:00am 15.7 14.6 12.1 79 2.0 ENE 9 15 5 8 1015.2 - 0.2
28/01:30am 14.7 14.5 11.8 83 1.6 SSW 4 9 2 5 1015.3 - 0.2
28/01:00am 15.9 15.4 12.1 78 2.1 W 6 11 3 6 1015.2 - 0.2
28/12:30am 16.2 15.7 12.0 76 2.3 SSE 6 13 3 7 1015.2 - 0.2
28/12:00am 15.0 14.4 11.7 80 1.8 ESE 6 7 3 4 1015.5 1015.5 0.2
 
Date/Time
EST
Temp
°C
App
Temp
°C
Dew
Point
Rel
Hum
%
Delta-T
°C
Wind Press
QNH
hPa
Press
MSL
hPa
Rain
since 9 am
mm
Dir
 
Spd
km/h
Gust
km/h
Spd
kts
Gust
kts
27/11:30pm 15.4 14.4 11.1 75 2.3 E 7 11 4 6 1015.7 - 0.2
27/11:00pm 15.6 14.5 10.7 72 2.6 NE 7 9 4 5 1016.0 - 0.2
27/10:30pm 15.4 14.4 10.3 71 2.7 E 6 9 3 5 1016.1 - 0.2
27/10:00pm 15.8 14.6 10.3 70 2.9 NE 7 15 4 8 1016.2 - 0.2
27/09:30pm 16.2 15.0 10.4 68 3.1 NE 7 15 4 8 1016.2 - 0.2
27/09:00pm 15.7 15.6 10.9 73 2.6 NE 2 6 1 3 1016.4 1016.4 0.2
27/08:30pm 15.6 14.7 11.2 75 2.4 NE 7 11 4 6 1016.4 - 0.2
27/08:00pm 15.1 14.4 11.4 78 2.0 E 6 7 3 4 1016.5 - 0.2
27/07:30pm 15.6 15.4 11.8 78 2.1 NNE 4 7 2 4 1016.6 - 0.2
27/07:00pm 15.7 16.2 11.5 76 2.3 CALM 0 6 0 3 1016.5 - 0.2
27/06:30pm 15.6 15.3 11.4 76 2.3 N 4 9 2 5 1016.3 - 0.2
27/06:00pm 16.4 15.5 11.2 71 2.8 N 7 13 4 7 1016.2 1016.2 0.2
27/05:30pm 17.4 15.2 10.7 65 3.6 NNW 13 17 7 9 1015.9 - 0.2
27/05:00pm 17.9 15.5 10.1 60 4.2 NNW 13 20 7 11 1015.8 - 0.2
27/04:30pm 18.6 15.6 10.5 59 4.4 NNW 17 26 9 14 1015.9 - 0.2
27/04:00pm 19.3 15.7 10.5 56 4.8 NNW 20 32 11 17 1016.0 - 0.2
27/03:30pm 19.4 15.2 9.9 54 5.1 N 22 32 12 17 1015.9 - 0.2
27/03:00pm 19.9 14.4 9.0 49 5.8 N 28 37 15 20 1015.9 1015.9 0.2
27/02:30pm 20.6 15.6 9.4 48 6.0 N 26 37 14 20 1015.9 - 0.2
27/02:00pm 20.6 15.8 8.7 46 6.3 N 24 32 13 17 1016.2 - 0.2
27/01:30pm 21.6 15.7 9.1 44 6.7 N 30 41 16 22 1016.5 - 0.2
27/01:00pm 21.7 15.0 8.3 42 7.1 N 33 46 18 25 1016.6 - 0.0
27/12:30pm 22.5 16.1 8.7 41 7.4 NNW 32 44 17 24 1017.1 - 0.0
27/12:00pm 21.8 16.6 10.3 48 6.3 N 28 37 15 20 1017.7 1017.8 0.0
27/11:30am 21.1 16.1 10.8 51 5.7 NNW 28 41 15 22 1018.2 - 0.0
27/11:00am 20.8 18.1 11.7 56 5.1 NNW 17 22 9 12 1018.7 - 0.0
27/10:30am 19.6 18.7 13.7 68 3.4 NNW 11 20 6 11 1019.0 - 0.0
27/10:00am 17.9 18.2 14.6 81 1.9 SW 6 9 3 5 1019.3 - 0.0
27/09:30am 17.4 17.6 14.8 85 1.5 E 7 9 4 5 1019.8 - 0.0
27/09:00am 15.5 15.0 13.7 89 1.0 E 9 11 5 6 1020.3 1020.2 0.0
27/08:30am 15.1 14.7 13.1 88 1.1 ESE 7 11 4 6 1020.4 - 0.0
27/08:00am 14.0 13.6 12.4 90 0.9 ESE 6 7 3 4 1020.5 - 0.0
27/07:30am 12.2 11.4 10.9 92 0.7 ESE 6 9 3 5 1020.4 - 0.0
27/07:00am 11.1 9.7 9.7 91 0.7 SSE 7 11 4 6 1020.2 - 0.0
27/06:30am 12.4 11.3 10.5 88 1.0 S 7 9 4 5 1020.2 - 0.0
27/06:00am 11.0 8.4 9.4 90 0.8 SSE 13 17 7 9 1020.1 1020.2 0.0
27/05:30am 11.4 9.4 10.0 91 0.7 SE 11 13 6 7 1020.3 - 0.0
27/05:00am 11.1 9.3 9.5 90 0.8 SE 9 13 5 7 1020.5 - 0.0
27/04:30am 11.0 9.2 9.6 91 0.7 SE 9 11 5 6 1020.6 - 0.0
27/04:00am 11.1 8.9 9.3 89 0.9 SE 11 13 6 7 1020.7 - 0.0
27/03:30am 10.9 8.2 9.1 89 0.9 SSE 13 15 7 8 1021.0 - 0.0
27/03:00am 10.5 8.2 8.9 90 0.8 SE 11 13 6 7 1021.2 1021.2 0.0
27/02:30am 10.7 8.8 8.9 89 0.9 SE 9 11 5 6 1021.6 - 0.0
27/02:00am 11.5 8.4 8.9 84 1.3 SSE 15 17 8 9 1022.0 - 0.0
27/01:30am 11.1 8.5 9.5 90 0.8 SSE 13 15 7 8 1022.4 - 0.0
27/01:00am 11.5 8.6 9.5 87 1.0 SSE 15 17 8 9 1022.6 - 0.0
27/12:30am 11.3 8.4 9.7 90 0.8 SSE 15 17 8 9 1022.7 - 0.0
27/12:00am 10.8 7.4 9.2 90 0.8 SSE 17 20 9 11 1022.9 1023.0 0.0
 
Date/Time
EST
Temp
°C
App
Temp
°C
Dew
Point
Rel
Hum
%
Delta-T
°C
Wind Press
QNH
hPa
Press
MSL
hPa
Rain
since 9 am
mm
Dir
 
Spd
km/h
Gust
km/h
Spd
kts
Gust
kts
26/11:30pm 10.7 7.7 9.3 91 0.7 SSE 15 17 8 9 1023.1 - 0.0
26/11:00pm 10.5 8.1 9.9 96 0.3 SSE 13 15 7 8 1023.5 - 0.0
26/10:30pm 10.5 8.5 10.1 97 0.2 SE 11 13 6 7 1023.6 - 0.0
26/10:00pm 10.8 8.9 10.4 97 0.2 SE 11 11 6 6 1023.8 - 0.0
26/09:30pm 10.8 9.4 10.8 100 0.0 E 9 11 5 6 1024.0 - 0.0
26/09:00pm 11.2 10.1 10.8 97 0.2 ESE 7 9 4 5 1024.0 1024.0 0.0
26/08:30pm 11.4 10.4 11.0 97 0.2 ESE 7 9 4 5 1024.1 - 0.0
26/08:00pm 10.4 10.4 9.8 96 0.3 CALM 0 0 0 0 1023.9 - 0.0
26/07:30pm 11.7 11.1 10.5 92 0.6 ENE 4 6 2 3 1024.0 - 0.0
26/07:00pm 11.7 10.5 10.3 91 0.7 NE 7 7 4 4 1024.1 - 0.0
26/06:30pm 12.2 11.2 11.1 93 0.6 N 7 9 4 5 1024.0 - 0.0
26/06:00pm 12.8 11.4 10.9 88 1.0 N 9 11 5 6 1023.7 1023.7 0.0
26/05:30pm 15.4 14.3 11.9 79 1.9 NNW 9 15 5 8 1023.6 - 0.0
26/05:00pm 17.2 16.2 12.3 73 2.7 NNW 9 13 5 7 1023.6 - 0.0
26/04:30pm 18.3 16.9 12.2 67 3.4 NNW 11 17 6 9 1023.6 - 0.0
26/04:00pm 19.6 17.7 11.9 61 4.3 NNW 13 19 7 10 1023.6 - 0.0
26/03:30pm 20.2 17.9 11.8 58 4.7 NW 15 20 8 11 1023.7 - 0.0
26/03:00pm 20.5 18.2 11.7 57 4.9 NNW 15 20 8 11 1023.9 1023.9 0.0
26/02:30pm 20.3 18.3 11.5 57 4.9 NW 13 22 7 12 1024.1 - 0.0
26/02:00pm 21.3 18.5 11.2 52 5.6 NNW 17 22 9 12 1024.2 - 0.0
26/01:30pm 21.5 19.2 11.7 53 5.5 NNW 15 20 8 11 1024.5 - 0.0
26/01:00pm 21.1 18.7 11.4 54 5.4 NNW 15 20 8 11 1024.9 - 0.0
26/12:30pm 20.8 18.5 11.7 56 5.1 NNW 15 20 8 11 1025.2 - 0.0
26/12:00pm 20.7 18.9 12.2 58 4.8 NW 13 19 7 10 1025.6 1025.6 0.0

Other Formats:

Comma delimited format used in spreadsheet applications
http://www.bom.gov.au/fwo/IDT60801/IDT60801.94972.axf

JavaScript Object Notation format (JSON) in row-major order
http://www.bom.gov.au/fwo/IDT60801/IDT60801.94972.json